TimeCST,TemperatureF,Dew PointF,Humidity,Sea Level PressureIn,VisibilityMPH,Wind Direction,Wind SpeedMPH,Gust SpeedMPH,PrecipitationIn,Events,Conditions,WindDirDegrees,DateUTC
12:15 AM,30.2,12.2,47,30.41,10.0,SSW,8.1,-,N/A,,Clear,210,2012-11-13 06:15:00
12:35 AM,28.4,12.2,51,30.40,10.0,South,8.1,-,N/A,,Clear,190,2012-11-13 06:35:00
12:55 AM,28.4,14.0,55,30.40,10.0,South,6.9,-,N/A,,Clear,190,2012-11-13 06:55:00
1:15 AM,28.4,14.0,55,30.40,10.0,SW,3.5,-,N/A,,Clear,220,2012-11-13 07:15:00
1:35 AM,28.4,12.2,51,30.39,10.0,SW,3.5,-,N/A,,Clear,220,2012-11-13 07:35:00
1:55 AM,28.4,12.2,51,30.38,10.0,South,3.5,-,N/A,,Clear,190,2012-11-13 07:55:00
2:15 AM,28.4,12.2,51,30.38,10.0,SW,4.6,-,N/A,,Clear,230,2012-11-13 08:15:00
2:35 AM,28.4,12.2,51,30.38,10.0,SW,4.6,-,N/A,,Clear,220,2012-11-13 08:35:00
2:55 AM,26.6,12.2,55,30.37,10.0,SW,3.5,-,N/A,,Clear,230,2012-11-13 08:55:00
3:35 AM,23.0,12.2,63,30.37,10.0,Calm,Calm,-,N/A,,Clear,0,2012-11-13 09:35:00
3:55 AM,23.0,14.0,68,30.36,10.0,Calm,Calm,-,N/A,,Clear,0,2012-11-13 09:55:00
4:15 AM,23.0,12.2,63,30.36,10.0,SW,3.5,-,N/A,,Clear,220,2012-11-13 10:15:00
4:35 AM,23.0,14.0,68,30.35,10.0,SW,3.5,-,N/A,,Clear,220,2012-11-13 10:35:00
4:55 AM,24.8,14.0,64,30.35,7.0,WSW,3.5,-,N/A,,Clear,240,2012-11-13 10:55:00
5:15 AM,23.0,12.2,63,30.35,10.0,SW,4.6,-,N/A,,Clear,230,2012-11-13 11:15:00
5:35 AM,23.0,12.2,63,30.35,10.0,SW,5.8,-,N/A,,Clear,230,2012-11-13 11:35:00
5:55 AM,23.0,14.0,68,30.36,10.0,SW,3.5,-,N/A,,Clear,230,2012-11-13 11:55:00
6:15 AM,21.2,12.2,68,30.36,10.0,Calm,Calm,-,N/A,,Clear,0,2012-11-13 12:15:00
6:35 AM,21.2,12.2,68,30.36,10.0,Calm,Calm,-,N/A,,Clear,0,2012-11-13 12:35:00
6:55 AM,21.2,12.2,68,30.35,10.0,Calm,Calm,-,N/A,,Clear,0,2012-11-13 12:55:00
7:15 AM,21.2,12.2,68,30.36,10.0,Calm,Calm,-,N/A,,Clear,0,2012-11-13 13:15:00
7:35 AM,21.2,12.2,68,30.35,10.0,Calm,Calm,-,N/A,,Clear,0,2012-11-13 13:35:00
7:55 AM,21.2,12.2,68,30.35,10.0,Calm,Calm,-,N/A,,Clear,0,2012-11-13 13:55:00
8:15 AM,26.6,17.6,69,30.35,10.0,WSW,3.5,-,N/A,,Clear,240,2012-11-13 14:15:00
8:35 AM,32.0,19.4,60,30.35,10.0,SW,9.2,-,N/A,,Clear,230,2012-11-13 14:35:00
8:55 AM,35.6,19.4,52,30.36,10.0,SW,9.2,16.1,N/A,,Clear,220,2012-11-13 14:55:00
9:15 AM,37.4,19.4,48,30.36,10.0,SW,12.7,-,N/A,,Clear,220,2012-11-13 15:15:00
9:35 AM,39.2,19.4,45,30.35,10.0,SW,16.1,-,N/A,,Clear,230,2012-11-13 15:35:00
9:55 AM,41.0,17.6,39,30.35,10.0,SW,13.8,-,N/A,,Clear,220,2012-11-13 15:55:00
10:15 AM,44.6,19.4,37,30.35,10.0,SSW,19.6,24.2,N/A,,Clear,210,2012-11-13 16:15:00
10:35 AM,46.4,19.4,34,30.35,10.0,SW,18.4,23.0,N/A,,Clear,220,2012-11-13 16:35:00
10:55 AM,46.4,19.4,34,30.35,10.0,SW,18.4,24.2,N/A,,Clear,220,2012-11-13 16:55:00
11:15 AM,50.0,19.4,30,30.33,10.0,SSW,17.3,24.2,N/A,,Clear,210,2012-11-13 17:15:00
11:35 AM,50.0,19.4,30,30.32,10.0,SSW,17.3,25.3,N/A,,Clear,200,2012-11-13 17:35:00
11:55 AM,51.8,19.4,28,30.31,10.0,SW,17.3,24.2,N/A,,Clear,220,2012-11-13 17:55:00
12:15 PM,53.6,19.4,26,30.29,10.0,SSW,19.6,24.2,N/A,,Clear,200,2012-11-13 18:15:00
12:35 PM,53.6,19.4,26,30.27,10.0,SSW,17.3,27.6,N/A,,Clear,210,2012-11-13 18:35:00
12:55 PM,53.6,19.4,26,30.26,10.0,SSW,19.6,26.5,N/A,,Clear,210,2012-11-13 18:55:00
1:15 PM,55.4,19.4,25,30.23,10.0,SSW,20.7,27.6,N/A,,Clear,200,2012-11-13 19:15:00
1:35 PM,55.4,19.4,25,30.22,10.0,SSW,20.7,28.8,N/A,,Clear,210,2012-11-13 19:35:00
1:55 PM,55.4,19.4,25,30.21,10.0,South,24.2,34.5,N/A,,Clear,190,2012-11-13 19:55:00
2:15 PM,55.4,19.4,25,30.19,10.0,SSW,18.4,29.9,N/A,,Clear,210,2012-11-13 20:15:00
2:35 PM,57.2,19.4,23,30.20,10.0,SSW,16.1,31.1,N/A,,Clear,210,2012-11-13 20:35:00
2:55 PM,57.2,19.4,23,30.19,10.0,SSW,20.7,28.8,N/A,,Clear,200,2012-11-13 20:55:00
3:15 PM,57.2,19.4,23,30.19,10.0,SW,20.7,27.6,N/A,,Clear,220,2012-11-13 21:15:00
3:35 PM,57.2,17.6,21,30.19,10.0,SSW,17.3,26.5,N/A,,Clear,210,2012-11-13 21:35:00
3:55 PM,57.2,17.6,21,30.18,10.0,SSW,17.3,26.5,N/A,,Clear,200,2012-11-13 21:55:00
4:15 PM,55.4,17.6,23,30.19,10.0,SW,15.0,23.0,N/A,,Clear,220,2012-11-13 22:15:00
4:35 PM,55.4,17.6,23,30.19,10.0,South,12.7,21.9,N/A,,Clear,190,2012-11-13 22:35:00
4:55 PM,55.4,17.6,23,30.19,10.0,SE,11.5,23.0,N/A,,Clear,140,2012-11-13 22:55:00
5:15 PM,53.6,19.4,26,30.20,10.0,South,12.7,19.6,N/A,,Clear,190,2012-11-13 23:15:00
5:35 PM,51.8,19.4,28,30.20,10.0,SSW,10.4,-,N/A,,Clear,200,2012-11-13 23:35:00
5:55 PM,48.2,19.4,32,30.21,10.0,SSW,8.1,-,N/A,,Clear,200,2012-11-13 23:55:00
6:15 PM,44.6,19.4,37,30.22,10.0,South,8.1,-,N/A,,Clear,190,2012-11-14 00:15:00
6:35 PM,42.8,19.4,39,30.22,10.0,South,8.1,-,N/A,,Clear,170,2012-11-14 00:35:00
6:55 PM,41.0,19.4,42,30.23,10.0,ESE,6.9,-,N/A,,Clear,110,2012-11-14 00:55:00
7:15 PM,37.4,17.6,45,30.24,10.0,South,8.1,-,N/A,,Clear,170,2012-11-14 01:15:00
7:35 PM,39.2,17.6,42,30.24,10.0,South,9.2,-,N/A,,Clear,180,2012-11-14 01:35:00
7:55 PM,39.2,17.6,42,30.24,10.0,North,-9999.0,-,N/A,,Clear,0,2012-11-14 01:55:00
8:15 PM,37.4,17.6,45,30.26,10.0,South,9.2,-,N/A,,Clear,180,2012-11-14 02:15:00
8:35 PM,39.2,15.8,39,30.26,10.0,South,10.4,-,N/A,,Clear,180,2012-11-14 02:35:00
8:55 PM,37.4,15.8,41,30.27,10.0,South,9.2,-,N/A,,Clear,180,2012-11-14 02:55:00
9:15 PM,37.4,17.6,45,30.27,10.0,South,9.2,-,N/A,,Clear,180,2012-11-14 03:15:00
9:35 PM,37.4,17.6,45,30.28,10.0,South,9.2,-,N/A,,Clear,190,2012-11-14 03:35:00
9:55 PM,37.4,15.8,41,30.29,10.0,South,8.1,-,N/A,,Clear,190,2012-11-14 03:55:00
10:15 PM,37.4,15.8,41,30.29,10.0,SSW,10.4,-,N/A,,Clear,200,2012-11-14 04:15:00
10:35 PM,35.6,15.8,44,30.29,10.0,SSW,6.9,-,N/A,,Clear,200,2012-11-14 04:35:00
10:55 PM,35.6,15.8,44,30.30,10.0,SSW,8.1,-,N/A,,Clear,200,2012-11-14 04:55:00
11:15 PM,35.6,15.8,44,30.31,10.0,SSW,6.9,-,N/A,,Clear,210,2012-11-14 05:15:00
11:35 PM,33.8,15.8,48,30.31,10.0,SW,6.9,-,N/A,,Clear,220,2012-11-14 05:35:00
11:55 PM,33.8,15.8,48,30.30,10.0,SSW,9.2,-,N/A,,Clear,210,2012-11-14 05:55:00